Time;durP1;ratioP1;P1;durP2;ratioP2;P2;SDS_P1;SDS_P2;PMS_P1;PMS_P2;Temp;Humidity;BMP_temperature;BMP_pressure;BME280_temperature;BME280_humidity;BME280_pressure;Samples;Min_cycle;Max_cycle;Signal;HPM_P1;HPM_P2
2023/04/11 00:02:14;;;;;;;5.32;1.60;;;9.00;99.90;;;;;;5139746;27;20384;-57
2023/04/11 00:04:40;;;;;;;8.75;2.25;;;9.00;99.90;;;;;;5130944;27;20126;-57
2023/04/11 00:07:06;;;;;;;9.50;1.70;;;9.00;99.90;;;;;;5133157;27;20111;-57
2023/04/11 00:09:32;;;;;;;7.68;1.33;;;8.90;99.90;;;;;;5137746;27;20035;-57
2023/04/11 00:11:58;;;;;;;7.18;1.63;;;8.90;99.90;;;;;;5133077;27;20027;-58
2023/04/11 00:14:24;;;;;;;10.65;1.50;;;8.80;99.90;;;;;;5132976;27;20039;-58
2023/04/11 00:16:52;;;;;;;12.38;1.85;;;8.90;99.90;;;;;;5153578;27;20536;-57
2023/04/11 00:19:22;;;;;;;8.60;1.90;;;8.70;99.90;;;;;;5153744;27;20174;-57
2023/04/11 00:21:51;;;;;;;9.68;2.00;;;8.70;99.90;;;;;;5134175;27;20416;-58
2023/04/11 00:24:17;;;;;;;14.07;2.33;;;8.70;99.90;;;;;;5133093;27;20514;-57
2023/04/11 00:26:42;;;;;;;8.02;2.67;;;8.60;99.90;;;;;;5114465;27;20420;-57
2023/04/11 00:29:08;;;;;;;9.45;2.70;;;8.60;99.90;;;;;;5114794;28;20153;-58
2023/04/11 00:31:34;;;;;;;12.90;2.22;;;8.60;99.90;;;;;;5132880;27;20491;-57
2023/04/11 00:33:59;;;;;;;15.95;2.67;;;8.60;99.90;;;;;;5132892;27;20042;-57
2023/04/11 00:36:25;;;;;;;8.43;2.40;;;8.60;99.90;;;;;;5132933;28;20072;-57
2023/04/11 00:38:51;;;;;;;12.10;2.28;;;8.50;99.90;;;;;;5132559;27;20043;-57
2023/04/11 00:41:17;;;;;;;15.35;2.50;;;8.50;99.90;;;;;;5132651;28;20083;-57
2023/04/11 00:43:43;;;;;;;11.98;2.65;;;8.40;99.90;;;;;;5132558;27;20080;-57
2023/04/11 00:46:09;;;;;;;12.43;2.92;;;8.40;99.90;;;;;;5152777;27;20039;-57
2023/04/11 00:48:35;;;;;;;12.15;3.20;;;8.40;99.90;;;;;;5153283;27;20035;-57
2023/04/11 00:51:01;;;;;;;17.92;2.90;;;8.30;99.90;;;;;;5153552;27;20245;-57
2023/04/11 00:53:31;;;;;;;20.63;3.25;;;8.20;99.90;;;;;;5153342;27;20091;-57
2023/04/11 00:55:58;;;;;;;16.92;2.90;;;8.20;99.90;;;;;;5135090;27;20038;-58
2023/04/11 00:58:24;;;;;;;15.32;4.20;;;8.20;99.90;;;;;;5135074;27;20049;-57
2023/04/11 01:00:50;;;;;;;15.40;2.90;;;8.10;99.90;;;;;;5157304;27;20525;-57
2023/04/11 01:03:17;;;;;;;13.05;3.00;;;8.10;99.90;;;;;;5157457;27;20034;-58
2023/04/11 01:05:44;;;;;;;17.88;3.05;;;8.10;99.90;;;;;;5157329;27;20066;-56
2023/04/11 01:08:12;;;;;;;12.75;3.10;;;8.00;99.90;;;;;;5157410;27;20105;-57
2023/04/11 01:10:40;;;;;;;17.83;2.87;;;8.00;99.90;;;;;;5138748;27;20047;-57
2023/04/11 01:13:07;;;;;;;17.40;4.07;;;8.00;99.90;;;;;;5157496;27;20093;-57
2023/04/11 01:15:33;;;;;;;14.65;2.70;;;7.90;99.90;;;;;;5138869;27;20047;-57
2023/04/11 01:18:00;;;;;;;13.43;3.42;;;7.80;99.90;;;;;;5157205;27;20039;-57
2023/04/11 01:20:30;;;;;;;20.70;2.83;;;7.80;99.90;;;;;;5156878;27;20119;-57
2023/04/11 01:22:57;;;;;;;18.58;3.10;;;7.70;99.90;;;;;;5138533;27;20477;-57
2023/04/11 01:25:23;;;;;;;13.85;2.80;;;7.70;99.90;;;;;;5138019;27;20153;-57
2023/04/11 01:27:49;;;;;;;13.55;2.78;;;7.70;99.90;;;;;;5138855;27;20039;-57
2023/04/11 01:30:15;;;;;;;19.05;3.25;;;7.70;99.90;;;;;;5156866;27;20053;-57
2023/04/11 01:32:41;;;;;;;14.48;2.65;;;7.70;99.90;;;;;;5138217;27;20420;-57
2023/04/11 01:35:08;;;;;;;18.20;2.80;;;7.60;99.90;;;;;;5156558;27;20047;-57
2023/04/11 01:37:34;;;;;;;19.75;3.28;;;7.70;99.90;;;;;;5157037;27;20045;-57
2023/04/11 01:40:00;;;;;;;15.65;2.75;;;7.70;99.90;;;;;;5156726;27;20043;-57
2023/04/11 01:42:28;;;;;;;14.75;2.88;;;7.70;99.90;;;;;;5156568;27;20511;-57
2023/04/11 01:44:55;;;;;;;9.55;2.63;;;7.80;99.90;;;;;;5138136;27;20480;-57
2023/04/11 01:47:21;;;;;;;13.27;3.05;;;7.80;99.90;;;;;;5137971;27;20236;-57
2023/04/11 01:49:48;;;;;;;11.80;2.55;;;7.70;99.90;;;;;;5156684;27;20041;-57
2023/04/11 01:52:13;;;;;;;10.98;1.90;;;7.70;99.90;;;;;;5156455;27;20031;-57
2023/04/11 01:54:39;;;;;;;6.75;1.80;;;7.80;99.90;;;;;;5156713;27;20042;-58
2023/04/11 01:57:05;;;;;;;12.15;2.05;;;7.80;99.90;;;;;;5156541;27;20072;-57
2023/04/11 01:59:31;;;;;;;11.10;2.20;;;7.80;99.90;;;;;;5137673;27;20204;-57
2023/04/11 02:01:57;;;;;;;3.65;1.00;;;7.70;99.90;;;;;;5156243;27;20039;-57
2023/04/11 02:04:22;;;;;;;8.25;1.45;;;7.70;99.90;;;;;;5156145;27;20039;-57
2023/04/11 02:06:48;;;;;;;5.82;1.30;;;7.80;99.90;;;;;;5137643;27;20094;-57
2023/04/11 02:09:15;;;;;;;7.88;1.02;;;7.80;99.90;;;;;;5155939;27;20109;-57
2023/04/11 02:11:41;;;;;;;6.43;1.00;;;7.70;99.90;;;;;;5155142;27;20043;-57
2023/04/11 02:14:08;;;;;;;7.78;1.00;;;7.80;99.90;;;;;;5156265;27;20573;-57
2023/04/11 02:16:48;;;;;;;3.67;1.08;;;7.70;99.90;;;;;;5137417;27;20237;-58
2023/04/11 02:19:14;;;;;;;3.22;0.90;;;7.80;99.90;;;;;;5156114;27;20039;-57
2023/04/11 02:21:39;;;;;;;5.30;0.93;;;7.70;99.90;;;;;;5155934;27;20204;-58
2023/04/11 02:24:05;;;;;;;4.15;0.70;;;7.80;99.90;;;;;;5156025;27;20066;-57
2023/04/11 02:26:31;;;;;;;6.13;1.42;;;7.80;99.90;;;;;;5137183;27;20100;-57
2023/04/11 02:28:56;;;;;;;4.72;0.90;;;7.90;99.90;;;;;;5155815;27;20458;-57
2023/04/11 02:31:22;;;;;;;2.80;0.82;;;7.80;99.90;;;;;;5156019;27;20088;-57
2023/04/11 02:33:47;;;;;;;6.03;1.00;;;7.80;99.90;;;;;;5155688;27;20042;-57
2023/04/11 02:36:13;;;;;;;6.10;1.50;;;7.80;99.90;;;;;;5155701;27;20046;-57
2023/04/11 02:38:39;;;;;;;8.07;1.00;;;7.90;99.90;;;;;;5136665;27;20054;-57
2023/04/11 02:41:05;;;;;;;5.72;1.35;;;7.80;99.90;;;;;;5155505;27;20491;-57
2023/04/11 02:43:31;;;;;;;6.72;1.20;;;7.80;99.90;;;;;;5136650;27;20401;-57
2023/04/11 02:45:56;;;;;;;2.17;0.88;;;7.90;99.90;;;;;;5155338;27;20048;-57
2023/04/11 02:48:22;;;;;;;3.08;0.80;;;7.90;99.90;;;;;;5155534;27;20034;-57
2023/04/11 02:50:48;;;;;;;4.15;0.98;;;7.80;99.90;;;;;;5136657;27;20119;-57
2023/04/11 02:53:15;;;;;;;3.63;0.85;;;7.80;99.90;;;;;;5136555;27;20162;-57
2023/04/11 02:55:41;;;;;;;3.47;0.90;;;7.80;99.90;;;;;;5155146;27;20038;-57
2023/04/11 02:58:06;;;;;;;4.53;1.05;;;7.80;99.90;;;;;;5136564;27;20031;-57
2023/04/11 03:00:32;;;;;;;5.82;1.10;;;7.80;99.90;;;;;;5154852;27;20038;-57
2023/04/11 03:02:57;;;;;;;1.90;1.10;;;7.80;99.90;;;;;;5155381;27;20568;-57
2023/04/11 03:05:23;;;;;;;3.92;1.25;;;7.80;99.90;;;;;;5155024;27;20064;-57
2023/04/11 03:07:49;;;;;;;6.88;1.67;;;7.80;99.90;;;;;;5155071;27;20049;-57
2023/04/11 03:10:15;;;;;;;4.03;1.33;;;7.80;99.90;;;;;;5155425;27;20050;-57
2023/04/11 03:12:41;;;;;;;9.13;1.33;;;7.90;99.90;;;;;;5155229;27;20042;-57
2023/04/11 03:15:07;;;;;;;4.35;1.30;;;8.00;99.90;;;;;;5136653;27;20487;-57
2023/04/11 03:17:33;;;;;;;8.10;1.60;;;7.80;99.90;;;;;;5154923;27;20118;-57
2023/04/11 03:19:58;;;;;;;6.22;1.50;;;7.90;99.90;;;;;;5136358;27;20130;-57
2023/04/11 03:22:24;;;;;;;5.97;1.33;;;8.00;99.90;;;;;;5153824;27;20023;-58
2023/04/11 03:24:50;;;;;;;7.25;1.30;;;7.90;99.90;;;;;;5118778;27;20043;-57
2023/04/11 03:27:15;;;;;;;8.27;1.50;;;7.80;99.90;;;;;;5154702;27;20118;-57
2023/04/11 03:29:41;;;;;;;10.60;1.80;;;7.80;99.90;;;;;;5154417;27;20084;-57
2023/04/11 03:32:07;;;;;;;8.40;2.13;;;7.80;99.90;;;;;;5136313;27;20380;-57
2023/04/11 03:34:32;;;;;;;8.13;1.65;;;7.80;99.90;;;;;;5136348;27;20038;-57
2023/04/11 03:36:58;;;;;;;5.65;1.65;;;7.80;99.90;;;;;;5154511;27;20030;-57
2023/04/11 03:39:24;;;;;;;12.82;2.35;;;7.90;99.90;;;;;;5136110;27;20050;-57
2023/04/11 03:41:50;;;;;;;8.80;1.80;;;7.80;99.90;;;;;;5154205;27;20119;-57
2023/04/11 03:44:15;;;;;;;7.32;1.50;;;7.80;99.90;;;;;;5136095;27;20076;-57
2023/04/11 03:46:41;;;;;;;7.25;1.80;;;7.80;99.90;;;;;;5154533;27;20039;-57
2023/04/11 03:49:06;;;;;;;9.85;1.67;;;7.80;99.90;;;;;;5154751;27;20547;-57
2023/04/11 03:51:32;;;;;;;12.55;2.55;;;7.70;99.90;;;;;;5154287;27;20540;-57
2023/04/11 03:53:58;;;;;;;8.25;1.40;;;7.80;99.90;;;;;;5135820;27;20074;-57
2023/04/11 03:56:24;;;;;;;12.50;2.35;;;7.90;99.90;;;;;;5154180;27;20039;-57
2023/04/11 03:58:49;;;;;;;14.70;2.53;;;7.80;99.90;;;;;;5135467;27;20042;-57
2023/04/11 04:01:15;;;;;;;13.23;2.33;;;7.80;99.90;;;;;;5153926;27;20038;-57
2023/04/11 04:03:41;;;;;;;9.48;2.10;;;7.90;99.90;;;;;;5153663;27;20042;-57
2023/04/11 04:06:07;;;;;;;13.15;2.47;;;7.90;99.90;;;;;;5154073;27;20066;-57
2023/04/11 04:08:33;;;;;;;9.70;2.75;;;8.00;99.90;;;;;;5135272;27;20042;-57
2023/04/11 04:10:58;;;;;;;7.70;2.40;;;8.00;99.90;;;;;;5154002;27;20042;-56
2023/04/11 04:13:24;;;;;;;17.38;3.22;;;7.90;99.90;;;;;;5154208;27;20384;-57
2023/04/11 04:15:52;;;;;;;11.25;2.10;;;7.90;99.90;;;;;;5153768;27;20485;-57
2023/04/11 04:18:18;;;;;;;11.30;3.40;;;7.90;99.90;;;;;;5153854;27;20027;-57
2023/04/11 04:20:44;;;;;;;10.70;2.35;;;8.00;99.90;;;;;;5153660;27;20071;-57
2023/04/11 04:23:13;;;;;;;10.10;2.35;;;8.00;99.90;;;;;;5135114;27;20035;-57
2023/04/11 04:25:41;;;;;;;10.93;2.65;;;8.00;99.90;;;;;;5153572;27;20102;-57
2023/04/11 04:28:07;;;;;;;15.18;2.75;;;8.00;99.90;;;;;;5135081;27;20073;-57
2023/04/11 04:30:32;;;;;;;12.68;2.65;;;8.10;99.90;;;;;;5153869;27;20074;-56
2023/04/11 04:32:58;;;;;;;11.05;2.50;;;8.10;99.90;;;;;;5153611;27;20039;-58
2023/04/11 04:35:25;;;;;;;14.40;2.25;;;8.10;99.90;;;;;;5153239;27;20042;-57
2023/04/11 04:37:51;;;;;;;8.65;2.17;;;8.00;99.90;;;;;;5134207;27;20106;-57
2023/04/11 04:40:19;;;;;;;13.73;2.70;;;8.10;99.90;;;;;;5134882;27;20039;-57
2023/04/11 04:42:48;;;;;;;12.88;3.03;;;8.00;99.90;;;;;;5153602;27;20039;-57
2023/04/11 04:45:15;;;;;;;13.38;3.00;;;8.00;99.90;;;;;;5153484;27;20027;-57
2023/04/11 04:47:41;;;;;;;10.38;2.90;;;8.00;99.90;;;;;;5135003;27;20033;-57
2023/04/11 04:50:07;;;;;;;12.90;2.78;;;8.00;99.90;;;;;;5153459;27;20038;-57
2023/04/11 04:52:32;;;;;;;11.20;3.30;;;8.00;99.90;;;;;;5153491;27;20076;-57
2023/04/11 04:54:58;;;;;;;11.50;2.70;;;7.90;99.90;;;;;;5153351;27;20381;-57
2023/04/11 04:57:28;;;;;;;13.18;2.55;;;8.00;99.90;;;;;;5153222;27;20043;-57
2023/04/11 04:59:55;;;;;;;10.23;2.40;;;8.00;99.90;;;;;;5153455;27;20031;-57
2023/04/11 05:02:21;;;;;;;11.30;2.60;;;7.90;99.90;;;;;;5153360;27;20042;-57
2023/04/11 05:04:50;;;;;;;12.90;2.65;;;7.90;99.90;;;;;;5153551;27;20031;-56
2023/04/11 05:07:17;;;;;;;12.25;2.75;;;7.90;99.90;;;;;;5153245;27;20031;-57
2023/04/11 05:09:42;;;;;;;12.07;2.28;;;7.90;99.90;;;;;;5134659;27;20082;-57
2023/04/11 05:12:08;;;;;;;11.07;3.13;;;7.90;99.90;;;;;;5134879;27;20077;-56
2023/04/11 05:14:34;;;;;;;9.50;2.22;;;7.90;99.90;;;;;;5153605;27;20087;-57
2023/04/11 05:17:00;;;;;;;9.00;2.35;;;7.90;99.90;;;;;;5153370;27;20037;-57
2023/04/11 05:19:25;;;;;;;12.73;3.25;;;7.90;99.90;;;;;;5153444;27;20079;-56
2023/04/11 05:21:52;;;;;;;13.55;2.60;;;7.90;99.90;;;;;;5153270;27;20047;-58
2023/04/11 05:24:18;;;;;;;8.85;2.42;;;7.90;99.90;;;;;;5153492;27;20041;-58
2023/04/11 05:26:44;;;;;;;14.35;2.30;;;7.90;99.90;;;;;;5153004;27;20046;-57
2023/04/11 05:29:10;;;;;;;6.97;2.75;;;7.90;99.90;;;;;;5153355;27;20077;-57
2023/04/11 05:31:36;;;;;;;16.40;2.97;;;7.90;99.90;;;;;;5153081;27;20074;-57
2023/04/11 05:34:02;;;;;;;13.75;2.60;;;7.90;99.90;;;;;;5153065;27;20070;-57
2023/04/11 05:36:28;;;;;;;14.13;2.55;;;7.90;99.90;;;;;;5152945;27;20046;-57
2023/04/11 05:38:54;;;;;;;14.00;2.63;;;7.90;99.90;;;;;;5134466;27;20092;-57
2023/04/11 05:41:20;;;;;;;18.95;3.00;;;7.90;99.90;;;;;;5136842;27;20045;-57
2023/04/11 05:43:45;;;;;;;10.00;2.60;;;7.80;99.90;;;;;;5114033;28;20039;-57
2023/04/11 05:46:11;;;;;;;11.55;2.90;;;7.70;99.90;;;;;;5147629;27;20399;-57
2023/04/11 05:48:37;;;;;;;12.75;2.80;;;7.80;99.90;;;;;;5156574;27;20034;-57
2023/04/11 05:51:04;;;;;;;13.73;2.70;;;7.80;99.90;;;;;;5156455;27;20038;-57
2023/04/11 05:53:30;;;;;;;14.93;3.00;;;7.80;99.90;;;;;;5156280;27;20035;-57
2023/04/11 05:55:56;;;;;;;12.18;3.08;;;7.80;99.90;;;;;;5137840;27;20477;-57
2023/04/11 05:58:23;;;;;;;12.35;2.88;;;7.80;99.90;;;;;;5156639;27;20037;-57
2023/04/11 06:00:49;;;;;;;14.32;3.13;;;7.80;99.90;;;;;;5156258;27;20043;-57
2023/04/11 06:03:15;;;;;;;12.80;3.22;;;7.80;99.90;;;;;;5156261;27;20118;-57
2023/04/11 06:05:41;;;;;;;14.30;4.90;;;7.70;99.90;;;;;;5137706;27;20503;-57
2023/04/11 06:08:08;;;;;;;17.13;3.05;;;7.90;99.90;;;;;;5156339;27;20041;-57
2023/04/11 06:10:34;;;;;;;10.35;2.50;;;7.90;99.90;;;;;;5156124;27;20418;-56
2023/04/11 06:13:00;;;;;;;9.18;2.72;;;7.80;99.90;;;;;;5137727;27;20116;-56
2023/04/11 06:15:26;;;;;;;11.65;2.63;;;7.80;99.90;;;;;;5156164;27;20062;-56
2023/04/11 06:17:52;;;;;;;15.10;3.33;;;7.70;99.90;;;;;;5137654;27;20053;-57
2023/04/11 06:20:19;;;;;;;8.48;3.08;;;7.70;99.90;;;;;;5137647;27;20502;-57
2023/04/11 06:22:49;;;;;;;12.57;2.88;;;7.70;99.90;;;;;;5156272;27;20039;-57
2023/04/11 06:25:19;;;;;;;14.85;3.70;;;7.80;99.90;;;;;;5137949;27;20493;-57
2023/04/11 06:27:45;;;;;;;19.60;3.45;;;7.90;99.90;;;;;;5155774;27;20121;-57
2023/04/11 06:30:10;;;;;;;13.38;3.35;;;8.00;99.90;;;;;;5137627;27;20118;-57
2023/04/11 06:32:36;;;;;;;12.10;2.72;;;8.00;99.90;;;;;;5156128;27;20031;-57
2023/04/11 06:35:02;;;;;;;12.35;3.20;;;8.00;99.90;;;;;;5155581;27;20049;-57
2023/04/11 06:37:27;;;;;;;10.40;3.22;;;8.00;99.90;;;;;;5137326;27;20416;-57
2023/04/11 06:39:53;;;;;;;11.80;2.58;;;7.90;99.90;;;;;;5154409;27;20049;-57
2023/04/11 06:42:19;;;;;;;15.75;3.38;;;8.00;99.90;;;;;;5135126;27;20038;-56
2023/04/11 06:44:45;;;;;;;17.65;4.30;;;8.00;99.90;;;;;;5116015;27;20047;-56
2023/04/11 06:47:11;;;;;;;13.88;3.10;;;7.90;99.90;;;;;;5116387;27;20173;-57
2023/04/11 06:49:37;;;;;;;13.10;2.75;;;8.00;99.90;;;;;;5116589;27;20074;-57
2023/04/11 06:52:03;;;;;;;16.52;3.13;;;8.00;99.90;;;;;;5134897;27;20066;-57
2023/04/11 06:54:28;;;;;;;16.23;3.25;;;8.10;99.90;;;;;;5134609;27;20035;-57
2023/04/11 06:56:56;;;;;;;16.33;4.07;;;8.10;99.90;;;;;;5134415;27;20039;-57
2023/04/11 06:59:21;;;;;;;18.90;3.20;;;8.20;99.90;;;;;;5134716;27;20050;-58
2023/04/11 07:01:48;;;;;;;15.75;3.03;;;8.10;99.90;;;;;;5115950;27;20495;-57
2023/04/11 07:04:15;;;;;;;15.38;3.38;;;8.20;99.90;;;;;;5115935;27;20049;-57
2023/04/11 07:06:40;;;;;;;19.38;3.63;;;8.20;99.90;;;;;;5134602;27;20114;-57
2023/04/11 07:09:08;;;;;;;13.00;3.40;;;8.30;99.90;;;;;;5134369;27;20181;-58
2023/04/11 07:11:34;;;;;;;20.75;3.75;;;8.30;99.90;;;;;;5151454;27;20046;-57
2023/04/11 07:14:01;;;;;;;15.95;3.33;;;8.30;99.90;;;;;;5154914;27;20389;-57
2023/04/11 07:16:26;;;;;;;15.45;4.05;;;8.40;99.90;;;;;;5136243;27;20059;-57
2023/04/11 07:18:53;;;;;;;18.52;3.30;;;8.40;99.90;;;;;;5136095;27;20050;-58
2023/04/11 07:21:19;;;;;;;11.52;2.83;;;8.40;99.90;;;;;;5154998;27;20039;-57
2023/04/11 07:23:45;;;;;;;21.08;3.95;;;8.40;99.90;;;;;;5154702;27;20042;-57
2023/04/11 07:26:12;;;;;;;18.83;3.13;;;8.50;99.90;;;;;;5154709;27;20126;-57
2023/04/11 07:28:39;;;;;;;18.67;3.50;;;8.40;99.90;;;;;;5136259;27;20035;-58
2023/04/11 07:31:08;;;;;;;16.30;3.47;;;8.50;99.90;;;;;;5154535;27;20043;-57
2023/04/11 07:33:36;;;;;;;9.40;2.35;;;8.60;99.90;;;;;;5154870;27;20046;-58
2023/04/11 07:36:02;;;;;;;12.30;2.55;;;8.80;99.90;;;;;;5154635;27;20054;-57
2023/04/11 07:38:28;;;;;;;12.48;2.33;;;8.80;99.90;;;;;;5154467;27;20047;-58
2023/04/11 07:40:58;;;;;;;12.45;2.47;;;9.00;99.90;;;;;;5154413;27;20125;-57
2023/04/11 07:43:25;;;;;;;11.65;2.50;;;9.10;99.90;;;;;;5135986;27;20042;-57
2023/04/11 07:45:52;;;;;;;15.63;2.58;;;9.10;99.90;;;;;;5154693;27;20122;-57
2023/04/11 07:48:20;;;;;;;17.75;2.53;;;9.20;99.90;;;;;;5154317;27;20035;-57
2023/04/11 07:50:45;;;;;;;12.13;2.90;;;9.20;99.90;;;;;;5154355;27;20066;-57
2023/04/11 07:53:11;;;;;;;18.08;3.08;;;9.20;99.90;;;;;;5154301;27;20076;-57
2023/04/11 07:55:37;;;;;;;11.88;2.60;;;9.10;99.90;;;;;;5154153;27;20069;-57
2023/04/11 07:58:03;;;;;;;13.68;2.40;;;9.00;99.90;;;;;;5154146;27;20034;-57
2023/04/11 08:00:31;;;;;;;11.57;2.15;;;8.80;99.90;;;;;;5153992;27;20045;-58
2023/04/11 08:03:01;;;;;;;10.00;2.33;;;8.40;99.90;;;;;;5153798;27;20066;-57
2023/04/11 08:05:28;;;;;;;11.73;2.20;;;8.30;99.90;;;;;;5154112;27;20374;-57
2023/04/11 08:07:54;;;;;;;10.60;2.40;;;8.20;99.90;;;;;;5135406;27;20050;-58
2023/04/11 08:10:19;;;;;;;12.95;2.65;;;8.10;99.90;;;;;;5153410;27;20034;-58
2023/04/11 08:12:45;;;;;;;13.35;2.67;;;8.20;99.90;;;;;;5153730;27;20030;-57
2023/04/11 08:15:11;;;;;;;11.60;2.30;;;8.40;99.90;;;;;;5153979;27;20159;-58
2023/04/11 08:17:37;;;;;;;11.48;2.92;;;8.40;99.90;;;;;;5153938;27;20113;-57
2023/04/11 08:20:04;;;;;;;12.18;2.33;;;8.50;99.90;;;;;;5135191;27;20532;-57
2023/04/11 08:22:32;;;;;;;18.70;4.32;;;8.40;99.90;;;;;;5153953;27;20030;-57
2023/04/11 08:24:57;;;;;;;12.75;2.67;;;8.60;99.90;;;;;;5153633;27;20556;-57
2023/04/11 08:27:23;;;;;;;15.43;2.40;;;8.90;99.90;;;;;;5134871;27;20074;-57
2023/04/11 08:29:49;;;;;;;12.35;2.33;;;9.00;99.90;;;;;;5135351;27;20122;-57
2023/04/11 08:32:15;;;;;;;13.05;1.92;;;9.30;99.90;;;;;;5154291;27;20034;-57
2023/04/11 08:34:40;;;;;;;15.50;3.28;;;9.50;99.90;;;;;;5154138;27;20544;-58
2023/04/11 08:37:06;;;;;;;12.45;2.28;;;9.60;99.90;;;;;;5153618;27;20491;-58
2023/04/11 08:39:32;;;;;;;11.40;2.22;;;9.60;99.90;;;;;;5153750;27;20461;-58
2023/04/11 08:41:58;;;;;;;15.63;2.45;;;9.90;99.90;;;;;;5153354;27;20492;-58
2023/04/11 08:44:24;;;;;;;8.52;2.10;;;10.00;99.90;;;;;;5153561;27;20066;-58
2023/04/11 08:46:50;;;;;;;10.20;2.55;;;10.40;99.90;;;;;;5135354;27;20089;-58
2023/04/11 08:49:16;;;;;;;12.20;2.15;;;10.60;99.90;;;;;;5135028;27;20068;-59
2023/04/11 08:51:43;;;;;;;20.58;2.92;;;10.70;99.90;;;;;;5153474;27;20074;-58
2023/04/11 08:54:09;;;;;;;10.23;1.85;;;11.10;99.90;;;;;;5153275;27;20035;-58
2023/04/11 08:56:35;;;;;;;9.60;1.92;;;11.10;99.90;;;;;;5153467;27;20039;-58
2023/04/11 08:59:01;;;;;;;3.78;1.23;;;11.00;99.90;;;;;;5153580;27;20067;-59
2023/04/11 09:01:30;;;;;;;4.68;1.63;;;10.60;99.90;;;;;;5153417;27;20038;-58
2023/04/11 09:03:58;;;;;;;6.03;1.13;;;10.20;99.90;;;;;;5153412;27;20041;-58
2023/04/11 09:06:25;;;;;;;9.65;2.00;;;10.10;99.90;;;;;;5153295;27;20415;-58
2023/04/11 09:08:51;;;;;;;8.23;1.70;;;10.40;99.90;;;;;;5153179;27;20039;-59
2023/04/11 09:11:17;;;;;;;9.40;2.30;;;10.60;99.90;;;;;;5134772;27;20354;-58
2023/04/11 09:13:43;;;;;;;8.75;1.63;;;11.20;99.90;;;;;;5134796;27;20125;-58
2023/04/11 09:16:11;;;;;;;8.63;2.10;;;11.50;99.90;;;;;;5153322;27;20221;-59
2023/04/11 09:18:42;;;;;;;11.10;3.35;;;11.80;99.90;;;;;;5153455;27;20114;-59
2023/04/11 09:21:10;;;;;;;10.40;2.25;;;12.10;99.90;;;;;;5156160;27;20038;-59
2023/04/11 09:23:36;;;;;;;9.43;2.17;;;12.30;99.90;;;;;;5157104;27;20046;-60
2023/04/11 09:26:05;;;;;;;6.85;2.00;;;12.10;99.90;;;;;;5156816;27;20055;-60
2023/04/11 09:28:51;;;;;;;7.93;1.65;;;12.00;99.90;;;;;;5157165;27;20195;-60
2023/04/11 09:31:17;;;;;;;11.50;2.25;;;11.70;99.90;;;;;;5138203;27;20054;-59
2023/04/11 09:33:53;;;;;;;5.78;1.80;;;12.00;99.90;;;;;;5157132;27;20095;-59
2023/04/11 09:36:20;;;;;;;7.57;1.65;;;11.90;99.90;;;;;;5156951;27;20049;-60
2023/04/11 09:38:46;;;;;;;8.80;1.88;;;11.40;99.90;;;;;;5157316;27;20087;-59
2023/04/11 09:41:12;;;;;;;8.65;1.33;;;10.90;99.90;;;;;;5156952;27;20822;-60
2023/04/11 09:43:54;;;;;;;5.75;1.08;;;10.40;99.90;;;;;;5156984;27;20429;-59
2023/04/11 09:46:20;;;;;;;5.20;1.38;;;10.30;99.90;;;;;;5156566;27;20541;-59
2023/04/11 09:48:50;;;;;;;9.45;1.58;;;10.20;99.90;;;;;;5156392;27;20034;-60
2023/04/11 09:51:17;;;;;;;9.63;1.70;;;10.60;99.90;;;;;;5156464;27;20496;-60
2023/04/11 09:53:43;;;;;;;10.65;2.28;;;10.90;99.90;;;;;;5156582;27;20110;-60
2023/04/11 09:56:09;;;;;;;9.88;2.33;;;10.80;99.90;;;;;;5156473;27;20544;-59
2023/04/11 09:58:36;;;;;;;9.10;1.75;;;10.70;99.90;;;;;;5156257;27;20049;-59
2023/04/11 10:01:06;;;;;;;4.10;1.17;;;10.20;99.90;;;;;;5156102;27;20035;-59
2023/04/11 10:03:37;;;;;;;3.97;0.90;;;9.50;99.90;;;;;;5156137;27;20039;-59
2023/04/11 10:06:21;;;;;;;3.85;1.23;;;9.10;99.90;;;;;;5156821;27;20388;-59
2023/04/11 10:08:49;;;;;;;6.00;1.40;;;8.90;99.90;;;;;;5156393;27;20065;-59
2023/04/11 10:11:17;;;;;;;8.05;1.60;;;8.70;99.90;;;;;;5156237;27;20039;-59
2023/04/11 10:13:44;;;;;;;4.90;0.88;;;8.90;99.90;;;;;;5156231;27;20046;-59
2023/04/11 10:16:12;;;;;;;7.32;1.17;;;8.50;99.90;;;;;;5136772;27;20047;-59
2023/04/11 10:18:59;;;;;;;7.78;1.60;;;8.70;99.90;;;;;;5137873;27;20034;-59
2023/04/11 10:21:33;;;;;;;6.57;1.45;;;9.00;99.90;;;;;;5137563;27;20046;-59
2023/04/11 10:24:07;;;;;;;5.15;1.45;;;9.10;99.90;;;;;;5137352;27;20043;-59
2023/04/11 10:26:59;;;;;;;9.77;1.77;;;9.10;99.90;;;;;;5136993;27;20054;-59
2023/04/11 10:29:27;;;;;;;4.88;1.08;;;9.00;99.90;;;;;;5155883;27;20066;-59
2023/04/11 10:32:15;;;;;;;5.20;0.88;;;8.90;99.90;;;;;;5136489;27;20077;-59
2023/04/11 10:34:49;;;;;;;3.97;1.20;;;8.60;99.90;;;;;;5155681;27;20166;-59
2023/04/11 10:37:17;;;;;;;6.95;1.88;;;8.40;99.90;;;;;;5155838;27;20095;-59
2023/04/11 10:40:07;;;;;;;2.08;0.80;;;8.30;99.90;;;;;;5137271;27;20384;-59
2023/04/11 10:42:37;;;;;;;;;;;8.20;99.90;;;;;;5156343;27;20074;-60
2023/04/11 10:45:25;;;;;;;2.38;0.60;;;8.00;99.90;;;;;;5155510;27;20296;-59
2023/04/11 10:47:59;;;;;;;4.00;0.80;;;7.90;99.90;;;;;;5155622;27;20039;-59
2023/04/11 10:50:25;;;;;;;2.50;0.75;;;8.00;99.90;;;;;;5155387;27;20038;-58
2023/04/11 10:52:52;;;;;;;3.40;1.00;;;8.10;99.90;;;;;;5155066;27;20056;-59
2023/04/11 10:55:18;;;;;;;6.80;1.23;;;8.20;99.90;;;;;;5136493;27;20035;-59
2023/04/11 10:58:07;;;;;;;3.72;1.50;;;8.30;99.90;;;;;;5155333;27;20042;-58
2023/04/11 11:00:50;;;;;;;8.05;1.50;;;8.40;99.90;;;;;;5155020;27;20034;-59
2023/04/11 11:03:20;;;;;;;11.45;2.05;;;8.60;99.90;;;;;;5119119;27;20043;-59
2023/04/11 11:05:47;;;;;;;8.43;1.63;;;8.80;99.90;;;;;;5154718;27;20042;-58
2023/04/11 11:08:13;;;;;;;7.18;1.42;;;8.90;99.90;;;;;;5154870;27;20504;-59
2023/04/11 11:10:41;;;;;;;6.25;1.95;;;8.90;99.90;;;;;;5155001;27;20041;-59
2023/04/11 11:13:07;;;;;;;9.57;1.67;;;9.10;99.90;;;;;;5153594;27;20483;-59
2023/04/11 11:15:36;;;;;;;5.20;1.40;;;9.10;99.90;;;;;;5134043;27;20039;-59
2023/04/11 11:18:09;;;;;;;12.80;2.38;;;9.00;99.90;;;;;;5133986;27;20149;-59
2023/04/11 11:20:36;;;;;;;12.98;2.30;;;9.10;99.90;;;;;;5133929;27;20122;-58
2023/04/11 11:23:05;;;;;;;9.60;2.08;;;8.90;99.90;;;;;;5134125;27;20453;-59
2023/04/11 11:25:30;;;;;;;8.93;2.28;;;8.90;99.90;;;;;;5115608;27;20055;-59
2023/04/11 11:27:59;;;;;;;6.05;1.65;;;9.10;99.90;;;;;;5134052;27;20048;-59
2023/04/11 11:30:24;;;;;;;6.18;1.70;;;9.20;99.90;;;;;;5133843;27;20108;-59
2023/04/11 11:32:50;;;;;;;10.25;2.08;;;9.50;99.90;;;;;;5133816;27;20039;-59
2023/04/11 11:35:16;;;;;;;4.22;1.17;;;9.70;99.90;;;;;;5133801;27;20108;-59
2023/04/11 11:37:42;;;;;;;6.78;1.60;;;10.00;99.90;;;;;;5114342;27;20404;-59
2023/04/11 11:40:12;;;;;;;5.35;1.60;;;10.20;99.90;;;;;;5133549;27;20039;-59
2023/04/11 11:42:38;;;;;;;5.18;1.30;;;10.40;99.90;;;;;;5153265;27;20034;-58
2023/04/11 11:45:21;;;;;;;4.43;0.82;;;10.80;99.90;;;;;;5153804;27;20041;-59
2023/04/11 11:47:48;;;;;;;7.40;2.05;;;11.30;99.90;;;;;;5154241;27;20380;-60
2023/04/11 11:50:28;;;;;;;7.70;2.03;;;11.40;99.90;;;;;;5154099;27;20031;-59
2023/04/11 11:52:55;;;;;;;9.55;1.60;;;11.30;99.90;;;;;;5154055;27;20046;-60
2023/04/11 11:55:21;;;;;;;6.38;1.45;;;11.20;99.90;;;;;;5153999;27;20034;-59
2023/04/11 11:57:48;;;;;;;9.05;2.13;;;11.60;99.90;;;;;;5153997;27;20050;-59
2023/04/11 12:00:22;;;;;;;7.95;2.13;;;11.80;99.90;;;;;;5135475;27;20038;-60
2023/04/11 12:02:51;;;;;;;10.73;2.05;;;12.10;99.90;;;;;;5134940;27;20049;-60
2023/04/11 12:05:17;;;;;;;6.97;1.52;;;12.60;99.90;;;;;;5153932;27;20034;-60
2023/04/11 12:07:42;;;;;;;7.85;2.28;;;12.90;99.90;;;;;;5153891;27;20429;-59
2023/04/11 12:10:12;;;;;;;12.55;2.85;;;12.90;99.90;;;;;;5153827;27;20083;-59
2023/04/11 12:12:42;;;;;;;8.85;2.05;;;12.30;99.90;;;;;;5135599;27;20118;-59
2023/04/11 12:15:12;;;;;;;9.25;2.25;;;11.50;99.90;;;;;;5133078;27;20143;-59
2023/04/11 12:17:38;;;;;;;10.77;2.78;;;11.30;99.90;;;;;;5133423;27;20075;-59
2023/04/11 12:20:09;;;;;;;10.68;2.30;;;11.30;99.90;;;;;;5132886;27;20084;-59
2023/04/11 12:22:38;;;;;;;12.15;3.13;;;11.60;99.90;;;;;;5133057;27;20115;-60
2023/04/11 12:25:05;;;;;;;9.75;1.98;;;11.90;99.90;;;;;;5132622;27;20114;-59
2023/04/11 12:27:33;;;;;;;11.93;2.00;;;12.10;99.90;;;;;;5133184;27;20041;-59
2023/04/11 12:30:02;;;;;;;8.85;1.77;;;11.80;99.90;;;;;;5114470;27;20039;-59
2023/04/11 12:32:29;;;;;;;11.48;2.10;;;11.30;99.90;;;;;;5114708;28;20043;-60
2023/04/11 12:34:55;;;;;;;6.35;1.40;;;10.80;99.90;;;;;;5114727;28;20047;-59
2023/04/11 12:37:20;;;;;;;7.50;2.38;;;10.40;99.90;;;;;;5114156;28;20043;-59
2023/04/11 12:39:46;;;;;;;9.07;1.90;;;10.10;99.90;;;;;;5132826;28;20087;-58
2023/04/11 12:42:12;;;;;;;14.98;2.40;;;10.10;99.90;;;;;;5132802;27;20511;-59
2023/04/11 12:44:37;;;;;;;7.78;1.80;;;10.30;99.90;;;;;;5114350;28;20042;-59
2023/04/11 12:47:03;;;;;;;14.95;2.88;;;10.20;99.90;;;;;;5132925;28;20050;-59
2023/04/11 12:49:29;;;;;;;13.35;2.67;;;10.40;99.90;;;;;;5132934;27;20081;-59
2023/04/11 12:51:55;;;;;;;11.18;2.25;;;10.20;99.90;;;;;;5132488;27;20400;-59